Time;durP1;ratioP1;P1;durP2;ratioP2;P2;SDS_P1;SDS_P2;PMS_P1;PMS_P2;Temp;Humidity;BMP_temperature;BMP_pressure;BME280_temperature;BME280_humidity;BME280_pressure;Samples;Min_cycle;Max_cycle;Signal;HPM_P1;HPM_P2
2023/06/22 00:01:28;;;;;;;9.52;5.18;;;18.60;99.90;;;;;;5072843;28;20024;-73
2023/06/22 00:03:53;;;;;;;12.65;4.85;;;18.60;99.90;;;;;;5074387;28;20029;-72
2023/06/22 00:06:19;;;;;;;8.82;5.03;;;18.60;99.90;;;;;;5072766;28;20025;-72
2023/06/22 00:08:45;;;;;;;12.60;4.72;;;18.60;99.90;;;;;;5073041;28;20032;-72
2023/06/22 00:11:10;;;;;;;16.75;6.32;;;18.50;99.90;;;;;;5072806;28;20109;-72
2023/06/22 00:13:37;;;;;;;9.05;5.05;;;18.50;99.90;;;;;;5072564;28;20082;-72
2023/06/22 00:16:02;;;;;;;10.05;5.50;;;18.50;99.90;;;;;;5073925;28;20546;-72
2023/06/22 00:18:30;;;;;;;12.13;4.95;;;18.40;99.90;;;;;;5074183;28;20060;-73
2023/06/22 00:20:59;;;;;;;11.07;5.43;;;18.40;99.90;;;;;;5072569;28;20460;-72
2023/06/22 00:23:25;;;;;;;12.98;6.18;;;18.40;99.90;;;;;;5072651;28;20112;-72
2023/06/22 00:25:51;;;;;;;9.70;4.28;;;18.40;99.90;;;;;;5073802;28;20419;-72
2023/06/22 00:28:17;;;;;;;11.13;5.30;;;18.40;99.90;;;;;;5073803;28;20052;-72
2023/06/22 00:30:42;;;;;;;9.10;5.05;;;18.30;99.90;;;;;;5072577;28;20452;-72
2023/06/22 00:33:08;;;;;;;16.30;6.15;;;18.30;99.90;;;;;;5073729;28;20441;-72
2023/06/22 00:35:34;;;;;;;7.85;5.57;;;18.30;99.90;;;;;;5073746;28;20033;-73
2023/06/22 00:38:00;;;;;;;11.27;4.97;;;18.30;99.90;;;;;;5072427;28;20024;-72
2023/06/22 00:40:31;;;;;;;8.48;5.18;;;18.20;99.90;;;;;;5073946;28;20032;-72
2023/06/22 00:42:57;;;;;;;9.45;5.07;;;18.20;99.90;;;;;;5072400;28;20532;-73
2023/06/22 00:45:24;;;;;;;10.73;5.85;;;18.20;99.90;;;;;;5072705;28;20117;-72
2023/06/22 00:47:54;;;;;;;8.88;5.55;;;18.10;99.90;;;;;;5072352;28;20020;-72
2023/06/22 00:50:22;;;;;;;13.48;5.88;;;18.10;99.90;;;;;;5058000;28;20049;-72
2023/06/22 00:52:58;;;;;;;15.07;5.82;;;18.10;99.90;;;;;;5053153;28;20431;-73
2023/06/22 00:55:25;;;;;;;11.20;5.70;;;18.10;99.90;;;;;;5053521;28;20017;-73
2023/06/22 00:57:55;;;;;;;13.35;6.00;;;18.10;99.90;;;;;;5035563;28;20029;-73
2023/06/22 01:00:24;;;;;;;16.33;5.55;;;18.10;99.90;;;;;;5035797;28;20439;-72
2023/06/22 01:02:51;;;;;;;8.85;5.53;;;18.10;99.90;;;;;;5035655;28;20496;-74
2023/06/22 01:05:18;;;;;;;13.18;5.85;;;18.10;99.90;;;;;;5053762;28;20036;-72
2023/06/22 01:07:54;;;;;;;12.82;5.45;;;18.00;99.90;;;;;;5053814;28;20484;-72
2023/06/22 01:10:19;;;;;;;10.15;5.38;;;18.10;99.90;;;;;;5035480;28;20021;-73
2023/06/22 01:12:58;;;;;;;11.25;5.32;;;18.10;99.90;;;;;;5052942;28;20025;-72
2023/06/22 01:16:01;;;;;;;11.70;5.80;;;18.10;99.90;;;;;;5036036;28;20476;-73
2023/06/22 01:18:30;;;;;;;9.45;5.10;;;18.00;99.90;;;;;;5047919;28;20037;-73
2023/06/22 01:20:59;;;;;;;11.43;5.43;;;18.00;99.90;;;;;;5035085;28;20029;-73
2023/06/22 01:23:35;;;;;;;11.40;5.30;;;18.00;99.90;;;;;;5053199;28;20116;-72
2023/06/22 01:26:30;;;;;;;14.02;4.70;;;18.00;99.90;;;;;;5035592;28;20346;-73
2023/06/22 01:28:58;;;;;;;11.05;5.30;;;17.90;99.90;;;;;;5052942;28;20024;-72
2023/06/22 01:31:26;;;;;;;10.20;5.07;;;17.90;99.90;;;;;;5035562;28;20532;-73
2023/06/22 01:34:00;;;;;;;9.57;5.25;;;17.90;99.90;;;;;;5052866;28;20472;-72
2023/06/22 01:36:27;;;;;;;8.13;4.85;;;17.80;99.90;;;;;;5056639;28;20071;-72
2023/06/22 01:38:53;;;;;;;11.95;5.28;;;17.80;99.90;;;;;;5038888;28;20431;-72
2023/06/22 01:41:20;;;;;;;9.73;5.20;;;17.80;99.90;;;;;;5056726;28;20056;-72
2023/06/22 01:43:47;;;;;;;8.98;5.28;;;17.80;99.90;;;;;;5056663;28;20036;-73
2023/06/22 01:46:14;;;;;;;13.38;5.53;;;17.80;99.90;;;;;;5038677;28;20083;-72
2023/06/22 01:48:40;;;;;;;15.45;6.13;;;17.70;99.90;;;;;;5038925;28;20025;-72
2023/06/22 01:51:06;;;;;;;10.05;5.50;;;17.70;99.90;;;;;;5056328;28;20469;-73
2023/06/22 01:53:32;;;;;;;11.75;5.57;;;17.70;99.90;;;;;;5056426;28;20036;-72
2023/06/22 01:55:58;;;;;;;13.48;5.65;;;17.70;99.90;;;;;;5056504;28;20056;-73
2023/06/22 01:58:26;;;;;;;7.05;5.05;;;17.70;99.90;;;;;;5056148;28;20408;-72
2023/06/22 02:01:13;;;;;;;13.70;5.45;;;17.70;99.90;;;;;;5056113;28;20024;-72
2023/06/22 02:03:53;;;;;;;11.48;5.45;;;17.60;99.90;;;;;;5038811;28;20025;-72
2023/06/22 02:06:29;;;;;;;11.90;5.60;;;17.60;99.90;;;;;;5056472;28;20017;-73
2023/06/22 02:08:59;;;;;;;11.23;5.13;;;17.60;99.90;;;;;;5056515;28;20024;-72
2023/06/22 02:11:28;;;;;;;14.57;5.38;;;17.60;99.90;;;;;;5038274;28;20416;-72
2023/06/22 02:13:55;;;;;;;13.02;6.40;;;17.50;99.90;;;;;;5056000;28;20492;-72
2023/06/22 02:16:21;;;;;;;8.82;5.60;;;17.50;99.90;;;;;;5055765;28;20029;-72
2023/06/22 02:18:51;;;;;;;10.82;5.82;;;17.50;99.90;;;;;;5038183;28;20040;-73
2023/06/22 02:21:20;;;;;;;11.70;6.38;;;17.50;99.90;;;;;;5038128;28;20369;-72
2023/06/22 02:23:46;;;;;;;15.00;5.78;;;17.40;99.90;;;;;;5038042;28;20052;-72
2023/06/22 02:26:13;;;;;;;6.88;5.63;;;17.40;99.90;;;;;;5055586;28;20056;-73
2023/06/22 02:28:39;;;;;;;11.85;6.15;;;17.40;99.90;;;;;;5038224;28;20033;-72
2023/06/22 02:31:04;;;;;;;9.05;6.32;;;17.40;99.90;;;;;;5055808;28;20029;-72
2023/06/22 02:33:30;;;;;;;14.75;6.20;;;17.40;99.90;;;;;;5055393;28;20033;-72
2023/06/22 02:35:56;;;;;;;9.98;6.05;;;17.40;99.90;;;;;;5037909;28;20048;-72
2023/06/22 02:38:24;;;;;;;12.25;5.80;;;17.40;99.90;;;;;;5055670;28;20127;-72
2023/06/22 02:40:50;;;;;;;11.55;5.93;;;17.40;99.90;;;;;;5055695;28;20021;-73
2023/06/22 02:43:15;;;;;;;12.25;6.43;;;17.40;99.90;;;;;;5055326;28;20033;-73
2023/06/22 02:45:41;;;;;;;9.50;5.55;;;17.30;99.90;;;;;;5055198;28;20536;-73
2023/06/22 02:48:07;;;;;;;12.32;6.07;;;17.30;99.90;;;;;;5054552;28;20029;-73
2023/06/22 02:50:32;;;;;;;15.02;6.32;;;17.30;99.90;;;;;;5055700;28;20049;-72
2023/06/22 02:52:58;;;;;;;14.77;6.40;;;17.30;99.90;;;;;;5055055;28;20120;-72
2023/06/22 02:55:24;;;;;;;10.55;5.97;;;17.30;99.90;;;;;;5038099;28;20461;-72
2023/06/22 02:57:52;;;;;;;11.88;6.53;;;17.30;99.90;;;;;;5037436;28;20029;-72
2023/06/22 03:00:19;;;;;;;8.05;4.85;;;17.30;99.90;;;;;;5037059;28;20056;-72
2023/06/22 03:02:48;;;;;;;13.38;6.30;;;17.30;99.90;;;;;;5055183;28;20064;-72
2023/06/22 03:05:17;;;;;;;14.98;6.05;;;17.30;99.90;;;;;;5055401;28;20028;-72
2023/06/22 03:07:43;;;;;;;;;;;17.30;99.90;;;;;;5055855;28;20071;-73
2023/06/22 03:10:10;;;;;;;11.82;6.60;;;17.20;99.90;;;;;;5037485;28;19928;-72
2023/06/22 03:12:40;;;;;;;10.73;6.28;;;17.30;99.90;;;;;;5037141;28;20442;-72
2023/06/22 03:15:08;;;;;;;15.30;6.15;;;17.30;99.90;;;;;;5054683;28;20493;-72
2023/06/22 03:17:34;;;;;;;12.70;5.50;;;17.30;99.90;;;;;;5054940;28;20086;-72
2023/06/22 03:20:00;;;;;;;8.48;5.88;;;17.20;99.90;;;;;;5054818;28;20025;-72
2023/06/22 03:22:26;;;;;;;12.60;6.90;;;17.20;99.90;;;;;;5054921;28;20362;-73
2023/06/22 03:24:52;;;;;;;11.65;6.20;;;17.20;99.90;;;;;;5037101;28;20036;-73
2023/06/22 03:27:18;;;;;;;10.90;6.32;;;17.20;99.90;;;;;;5054835;28;20025;-72
2023/06/22 03:29:44;;;;;;;10.82;6.53;;;17.20;99.90;;;;;;5054832;28;20021;-72
2023/06/22 03:32:10;;;;;;;9.80;5.60;;;17.20;99.90;;;;;;5054633;28;20032;-73
2023/06/22 03:34:35;;;;;;;11.35;6.30;;;17.20;99.90;;;;;;5036593;28;20392;-72
2023/06/22 03:37:01;;;;;;;12.63;6.30;;;17.20;99.90;;;;;;5054473;28;20064;-72
2023/06/22 03:39:27;;;;;;;8.88;6.40;;;17.20;99.90;;;;;;5054601;28;20032;-72
2023/06/22 03:41:53;;;;;;;9.07;6.50;;;17.20;99.90;;;;;;5036614;28;20021;-72
2023/06/22 03:44:18;;;;;;;9.98;5.93;;;17.20;99.90;;;;;;5054351;28;20419;-72
2023/06/22 03:46:44;;;;;;;10.25;6.10;;;17.30;99.90;;;;;;5036488;28;20037;-72
2023/06/22 03:49:09;;;;;;;11.65;6.55;;;17.30;99.90;;;;;;5054150;28;20053;-72
2023/06/22 03:51:35;;;;;;;10.57;7.00;;;17.30;99.90;;;;;;5054148;28;20028;-72
2023/06/22 03:54:01;;;;;;;8.43;5.40;;;17.30;99.90;;;;;;5053833;28;20036;-72
2023/06/22 03:56:26;;;;;;;10.13;5.90;;;17.30;99.90;;;;;;5036003;28;20032;-72
2023/06/22 03:58:52;;;;;;;8.93;5.30;;;17.30;99.90;;;;;;5053913;28;20055;-72
2023/06/22 04:01:18;;;;;;;8.70;5.22;;;17.40;99.90;;;;;;5054072;28;20060;-73
2023/06/22 04:03:43;;;;;;;9.63;5.55;;;17.40;99.90;;;;;;5036949;28;20032;-72
2023/06/22 04:06:09;;;;;;;11.02;7.07;;;17.50;99.90;;;;;;5054082;28;20102;-72
2023/06/22 04:08:35;;;;;;;7.55;5.60;;;17.50;99.90;;;;;;5054063;28;20021;-80
2023/06/22 04:11:00;;;;;;;7.65;5.70;;;17.50;99.90;;;;;;5053845;28;20021;-73
2023/06/22 04:13:26;;;;;;;8.73;5.70;;;17.60;99.90;;;;;;5036236;28;20029;-75
2023/06/22 04:15:52;;;;;;;8.05;5.38;;;17.60;99.90;;;;;;5054089;28;20057;-72
2023/06/22 04:18:17;;;;;;;12.90;6.50;;;17.70;99.90;;;;;;5053841;28;20021;-75
2023/06/22 04:20:46;;;;;;;12.40;5.35;;;17.80;99.90;;;;;;5053864;28;20461;-76
2023/06/22 04:23:12;;;;;;;;;;;17.80;99.90;;;;;;5054334;28;20024;-74
2023/06/22 04:25:38;;;;;;;11.70;5.50;;;17.80;99.90;;;;;;5054125;28;20418;-74
2023/06/22 04:28:04;;;;;;;13.18;5.95;;;17.90;99.90;;;;;;5054085;28;20032;-74
2023/06/22 04:30:33;;;;;;;10.98;6.18;;;18.00;99.90;;;;;;5035945;28;20074;-74
2023/06/22 04:32:59;;;;;;;8.63;5.35;;;18.00;99.90;;;;;;5036299;28;20025;-76
2023/06/22 04:35:25;;;;;;;7.22;5.18;;;18.10;99.90;;;;;;5036069;28;20036;-76
2023/06/22 04:37:54;;;;;;;10.32;5.38;;;18.20;99.90;;;;;;5035977;28;20051;-75
2023/06/22 04:40:21;;;;;;;7.50;4.68;;;18.20;99.90;;;;;;5053633;28;20025;-76
2023/06/22 04:42:52;;;;;;;10.80;5.10;;;18.30;99.90;;;;;;5035759;28;20544;-77
2023/06/22 04:45:18;;;;;;;9.18;4.97;;;18.40;99.90;;;;;;5035733;28;20425;-78
2023/06/22 04:47:45;;;;;;;12.43;5.43;;;18.50;99.90;;;;;;5019220;28;20032;-77
2023/06/22 04:50:14;;;;;;;9.05;4.95;;;18.50;99.90;;;;;;5053866;28;20045;-77
2023/06/22 04:52:39;;;;;;;7.93;4.90;;;18.50;99.90;;;;;;5053673;28;20021;-71
2023/06/22 04:55:06;;;;;;;6.65;4.80;;;18.60;99.90;;;;;;5053421;28;20041;-75
2023/06/22 04:57:32;;;;;;;12.38;5.47;;;18.60;99.90;;;;;;5035513;28;20029;-75
2023/06/22 05:00:13;;;;;;;10.23;5.20;;;18.70;99.90;;;;;;5053099;28;20479;-75
2023/06/22 05:02:41;;;;;;;7.78;4.95;;;18.60;99.90;;;;;;5037272;28;20369;-75
2023/06/22 05:05:08;;;;;;;9.02;4.78;;;18.80;99.90;;;;;;5053599;28;20032;-75
2023/06/22 05:07:34;;;;;;;11.30;5.10;;;18.80;99.90;;;;;;5051836;28;20449;-75
2023/06/22 05:10:04;;;;;;;6.47;4.50;;;18.90;99.90;;;;;;5053437;28;20483;-77
2023/06/22 05:12:30;;;;;;;11.80;4.25;;;19.00;99.90;;;;;;5056481;28;20029;-75
2023/06/22 05:14:56;;;;;;;11.30;5.03;;;19.10;99.90;;;;;;5038009;28;20033;-75
2023/06/22 05:17:22;;;;;;;9.40;4.65;;;19.10;99.90;;;;;;5055647;28;20373;-77
2023/06/22 05:19:48;;;;;;;5.85;4.50;;;19.20;99.90;;;;;;5055949;28;20108;-81
2023/06/22 05:22:17;;;;;;;10.82;5.22;;;19.30;99.90;;;;;;5055858;28;20032;-77
2023/06/22 05:24:43;;;;;;;;;;;19.40;99.90;;;;;;5056673;28;20481;-79
2023/06/22 05:27:09;;;;;;;8.07;4.38;;;19.50;99.90;;;;;;5055900;28;19904;-76
2023/06/22 05:29:36;;;;;;;10.55;4.70;;;19.60;99.90;;;;;;5056044;28;20029;-76
2023/06/22 05:32:02;;;;;;;9.07;4.50;;;19.70;99.90;;;;;;5056166;28;20112;-75
2023/06/22 05:34:28;;;;;;;8.27;4.70;;;19.70;99.90;;;;;;5055588;28;20112;-76
2023/06/22 05:36:54;;;;;;;12.07;4.28;;;19.80;99.90;;;;;;5056999;28;20472;-76
2023/06/22 05:39:19;;;;;;;9.13;4.45;;;19.90;99.90;;;;;;5056849;28;20070;-77
2023/06/22 05:41:46;;;;;;;12.30;5.35;;;18.70;99.90;;;;;;5057209;28;20035;-72
2023/06/22 05:44:12;;;;;;;15.85;4.65;;;20.10;99.90;;;;;;5056989;28;20036;-73
2023/06/22 05:46:44;;;;;;;12.52;4.85;;;20.30;99.90;;;;;;5057027;28;20090;-74
2023/06/22 05:49:10;;;;;;;10.15;4.25;;;20.40;99.90;;;;;;5056840;28;20041;-75
2023/06/22 05:51:36;;;;;;;10.80;4.18;;;20.60;99.90;;;;;;5038628;28;20032;-73
2023/06/22 05:54:01;;;;;;;13.18;4.15;;;20.70;99.90;;;;;;5056533;28;20041;-73
2023/06/22 05:56:27;;;;;;;8.77;4.13;;;20.80;99.90;;;;;;5056854;28;20024;-71
2023/06/22 05:58:53;;;;;;;8.43;4.70;;;21.00;99.90;;;;;;5038470;28;20056;-71
2023/06/22 06:01:19;;;;;;;13.55;4.25;;;21.10;99.90;;;;;;5056280;28;20079;-73
2023/06/22 06:03:44;;;;;;;13.05;4.18;;;21.30;99.90;;;;;;5056433;28;20373;-73
2023/06/22 06:06:10;;;;;;;17.25;5.45;;;21.50;99.90;;;;;;5056478;28;20116;-73
2023/06/22 06:08:37;;;;;;;9.52;4.20;;;21.60;99.90;;;;;;5038567;28;20035;-70
2023/06/22 06:11:03;;;;;;;9.82;4.40;;;21.80;99.90;;;;;;5038151;28;20029;-73
2023/06/22 06:13:28;;;;;;;13.80;4.55;;;21.90;99.90;;;;;;5055771;28;20158;-70
2023/06/22 06:15:57;;;;;;;8.98;3.85;;;22.20;99.90;;;;;;5055736;28;20078;-70
2023/06/22 06:18:23;;;;;;;10.35;4.55;;;22.40;99.90;;;;;;5056048;28;20082;-70
2023/06/22 06:20:48;;;;;;;10.68;4.47;;;22.60;99.90;;;;;;5055613;28;20108;-70
2023/06/22 06:23:14;;;;;;;16.00;4.80;;;23.00;99.90;;;;;;5037975;28;20443;-70
2023/06/22 06:25:40;;;;;;;13.68;5.13;;;23.50;99.90;;;;;;5055515;28;20036;-71
2023/06/22 06:28:05;;;;;;;13.13;4.85;;;24.00;99.90;;;;;;5055943;28;20037;-71
2023/06/22 06:30:31;;;;;;;10.70;5.10;;;24.40;99.90;;;;;;5055727;28;20025;-71
2023/06/22 06:32:57;;;;;;;11.43;4.22;;;24.90;99.90;;;;;;5055571;28;20059;-70
2023/06/22 06:35:23;;;;;;;8.57;3.97;;;25.20;99.90;;;;;;5056024;28;20483;-71
2023/06/22 06:37:50;;;;;;;13.27;4.43;;;25.50;99.90;;;;;;5037747;28;20025;-71
2023/06/22 06:40:17;;;;;;;13.80;4.32;;;25.70;99.90;;;;;;5037735;28;20419;-70
2023/06/22 06:42:45;;;;;;;10.10;4.88;;;25.70;99.90;;;;;;5055223;28;20025;-70
2023/06/22 06:45:23;;;;;;;11.13;4.20;;;25.50;99.90;;;;;;5037623;28;20354;-70
2023/06/22 06:47:50;;;;;;;15.07;4.60;;;25.70;99.90;;;;;;5055116;28;20489;-71
2023/06/22 06:50:17;;;;;;;13.32;3.70;;;25.90;99.90;;;;;;5054997;28;20045;-71
2023/06/22 06:52:43;;;;;;;17.75;4.28;;;25.90;99.90;;;;;;5055065;28;20029;-70
2023/06/22 06:55:13;;;;;;;17.77;4.30;;;25.80;99.90;;;;;;5054906;28;20078;-72
2023/06/22 06:57:40;;;;;;;11.38;3.80;;;25.80;99.90;;;;;;5037310;28;20021;-72
2023/06/22 07:00:11;;;;;;;8.70;3.75;;;26.10;99.90;;;;;;5055019;28;20040;-72
2023/06/22 07:02:38;;;;;;;9.18;3.20;;;26.30;99.90;;;;;;5037153;28;20025;-72
2023/06/22 07:05:04;;;;;;;12.23;3.55;;;26.60;99.90;;;;;;5037566;28;20106;-70
2023/06/22 07:07:30;;;;;;;9.25;3.50;;;27.00;99.90;;;;;;5055016;28;20457;-72
2023/06/22 07:09:56;;;;;;;12.60;3.53;;;27.40;99.90;;;;;;5055201;28;20066;-71
2023/06/22 07:12:21;;;;;;;10.55;3.70;;;27.60;99.90;;;;;;5055051;28;20082;-72
2023/06/22 07:14:47;;;;;;;8.77;4.43;;;27.70;99.90;;;;;;5054818;28;20040;-72
2023/06/22 07:17:12;;;;;;;11.85;3.60;;;27.90;99.90;;;;;;5036917;28;20025;-72
2023/06/22 07:19:38;;;;;;;9.00;3.10;;;28.30;99.70;;;;;;5054549;28;20021;-72
2023/06/22 07:22:04;;;;;;;10.27;3.88;;;28.50;98.90;;;;;;5054736;28;20029;-72
2023/06/22 07:24:30;;;;;;;10.35;3.80;;;28.70;98.80;;;;;;5054741;28;20075;-72
2023/06/22 07:26:57;;;;;;;13.20;4.15;;;29.00;98.30;;;;;;5036715;28;20115;-72
2023/06/22 07:29:23;;;;;;;13.75;3.97;;;29.20;97.50;;;;;;5054490;28;20021;-72
2023/06/22 07:31:51;;;;;;;11.65;3.78;;;29.40;97.10;;;;;;5054451;28;20040;-72
2023/06/22 07:34:17;;;;;;;14.95;5.22;;;29.70;97.10;;;;;;5054307;28;20035;-72
2023/06/22 07:36:43;;;;;;;13.82;5.10;;;29.70;96.10;;;;;;5036490;28;20116;-72
2023/06/22 07:39:08;;;;;;;14.10;5.38;;;29.60;95.20;;;;;;5054267;28;20021;-72
2023/06/22 07:41:34;;;;;;;19.05;6.40;;;29.80;95.60;;;;;;5054427;28;20021;-72
2023/06/22 07:44:00;;;;;;;11.60;5.78;;;30.00;95.40;;;;;;5054046;28;20029;-72
2023/06/22 07:46:25;;;;;;;14.90;6.18;;;29.70;94.40;;;;;;5053999;28;20484;-72
2023/06/22 07:48:51;;;;;;;16.58;7.10;;;29.40;95.40;;;;;;5054033;28;20131;-72
2023/06/22 07:51:17;;;;;;;18.75;8.32;;;29.30;95.40;;;;;;5036396;28;20480;-73
2023/06/22 07:53:43;;;;;;;20.30;8.85;;;28.90;95.90;;;;;;5054038;28;20033;-72
2023/06/22 07:56:12;;;;;;;16.95;8.20;;;29.10;96.30;;;;;;5037037;28;20078;-72
2023/06/22 07:58:38;;;;;;;15.05;8.27;;;29.70;95.60;;;;;;5054355;28;20456;-72
2023/06/22 08:01:04;;;;;;;15.52;7.97;;;30.10;94.80;;;;;;5053975;28;20040;-72
2023/06/22 08:03:29;;;;;;;17.50;9.10;;;30.50;94.20;;;;;;5053989;28;20052;-72
2023/06/22 08:05:55;;;;;;;17.83;8.60;;;31.00;93.10;;;;;;5036114;28;20452;-72
2023/06/22 08:08:21;;;;;;;15.68;7.95;;;31.20;91.80;;;;;;5054129;28;20025;-72
2023/06/22 08:10:47;;;;;;;20.92;8.25;;;31.00;91.60;;;;;;5053864;28;20025;-72
2023/06/22 08:13:13;;;;;;;16.00;7.97;;;30.90;92.20;;;;;;5035918;28;20036;-72
2023/06/22 08:15:38;;;;;;;13.38;8.00;;;31.10;91.60;;;;;;5053939;28;20025;-72
2023/06/22 08:18:05;;;;;;;15.43;8.32;;;31.30;91.40;;;;;;5053925;28;20021;-72
2023/06/22 08:20:31;;;;;;;16.58;6.93;;;31.30;91.00;;;;;;5053871;28;20056;-72
2023/06/22 08:22:58;;;;;;;12.02;6.03;;;31.60;90.60;;;;;;5053718;28;20120;-70
2023/06/22 08:25:23;;;;;;;11.20;5.88;;;31.90;88.60;;;;;;5053640;28;20111;-70
2023/06/22 08:27:49;;;;;;;12.40;7.25;;;31.40;86.40;;;;;;5053340;28;20056;-70
2023/06/22 08:30:17;;;;;;;13.30;5.85;;;31.60;88.00;;;;;;5035639;28;20033;-70
2023/06/22 08:32:42;;;;;;;13.88;7.03;;;31.70;86.60;;;;;;5053538;28;20457;-70
2023/06/22 08:35:08;;;;;;;13.18;7.70;;;31.70;86.00;;;;;;5053209;28;20036;-70
2023/06/22 08:37:35;;;;;;;15.77;6.82;;;31.80;85.70;;;;;;5053512;28;20040;-70
2023/06/22 08:40:05;;;;;;;14.77;6.88;;;32.10;85.20;;;;;;5053451;28;20029;-70
2023/06/22 08:42:31;;;;;;;13.85;6.55;;;32.30;83.20;;;;;;5053414;28;20032;-70
2023/06/22 08:44:57;;;;;;;16.13;7.45;;;32.50;81.50;;;;;;5036900;28;20388;-73
2023/06/22 08:47:23;;;;;;;13.18;8.00;;;32.40;82.90;;;;;;5039477;28;20025;-63
2023/06/22 08:49:49;;;;;;;13.98;8.35;;;31.00;91.20;;;;;;5057644;28;20048;-63
2023/06/22 08:52:14;;;;;;;13.80;7.90;;;32.70;86.80;;;;;;5057506;28;20032;-63
2023/06/22 08:54:40;;;;;;;11.00;6.32;;;34.60;79.70;;;;;;5057453;28;20469;-63
2023/06/22 08:57:06;;;;;;;11.35;6.45;;;35.90;74.60;;;;;;5057497;28;20029;-63
2023/06/22 08:59:32;;;;;;;13.07;7.25;;;36.10;71.40;;;;;;5039246;28;20527;-63
2023/06/22 09:01:57;;;;;;;9.77;6.80;;;36.40;69.60;;;;;;5057488;28;20017;-61
2023/06/22 09:04:24;;;;;;;9.48;6.72;;;36.10;69.00;;;;;;5057050;28;20063;-61
2023/06/22 09:06:52;;;;;;;12.30;6.75;;;36.40;68.40;;;;;;5057290;28;20113;-61
2023/06/22 09:09:18;;;;;;;12.65;6.07;;;36.90;66.00;;;;;;5057492;28;20112;-61
2023/06/22 09:11:44;;;;;;;10.73;6.55;;;37.00;63.70;;;;;;5057158;28;20102;-61
2023/06/22 09:14:11;;;;;;;15.00;7.43;;;36.40;64.10;;;;;;5039231;28;20037;-61
2023/06/22 09:16:36;;;;;;;13.35;7.40;;;35.80;64.00;;;;;;5056803;28;20449;-62
2023/06/22 09:19:02;;;;;;;11.23;6.53;;;36.10;64.80;;;;;;5057514;28;20040;-61
2023/06/22 09:21:28;;;;;;;14.93;7.32;;;36.20;63.00;;;;;;5056898;28;20033;-61
2023/06/22 09:23:54;;;;;;;8.02;6.03;;;35.90;61.70;;;;;;5039070;28;20035;-61
2023/06/22 09:26:21;;;;;;;12.80;6.88;;;35.60;63.00;;;;;;5056842;28;20024;-61
2023/06/22 09:28:47;;;;;;;8.52;6.97;;;36.20;62.90;;;;;;5056564;28;20595;-61
2023/06/22 09:31:12;;;;;;;9.80;6.60;;;35.90;62.70;;;;;;5056835;28;20103;-61
2023/06/22 09:33:40;;;;;;;11.18;6.38;;;36.30;62.00;;;;;;5056364;28;20029;-61
2023/06/22 09:36:09;;;;;;;12.07;6.47;;;37.20;60.90;;;;;;5056414;28;20025;-61
2023/06/22 09:38:38;;;;;;;11.60;6.60;;;37.40;59.40;;;;;;5056513;28;20079;-61
2023/06/22 09:41:04;;;;;;;10.15;6.20;;;37.20;59.10;;;;;;5038653;28;20024;-61
2023/06/22 09:43:32;;;;;;;13.20;6.63;;;37.10;60.00;;;;;;5056480;28;20100;-61
2023/06/22 09:45:57;;;;;;;11.18;6.93;;;37.60;58.40;;;;;;5056414;28;20040;-61
2023/06/22 09:48:23;;;;;;;10.80;6.90;;;37.50;57.50;;;;;;5056579;28;20017;-61
2023/06/22 09:50:49;;;;;;;10.23;6.50;;;37.10;57.70;;;;;;5056028;28;20055;-61
2023/06/22 09:53:14;;;;;;;10.18;6.18;;;37.60;56.60;;;;;;5056603;28;20044;-61
2023/06/22 09:55:40;;;;;;;10.13;6.30;;;37.10;56.20;;;;;;5055749;28;20063;-61
2023/06/22 09:58:05;;;;;;;10.05;6.28;;;37.40;56.80;;;;;;5055962;28;20025;-61
2023/06/22 10:00:31;;;;;;;8.88;6.55;;;37.60;56.10;;;;;;5055956;28;20033;-61
2023/06/22 10:02:57;;;;;;;9.98;5.82;;;37.40;56.00;;;;;;5038197;28;20057;-61
2023/06/22 10:05:23;;;;;;;9.65;6.30;;;37.20;56.40;;;;;;5038241;28;20036;-61
2023/06/22 10:07:49;;;;;;;14.25;6.20;;;37.50;55.60;;;;;;5055987;28;20033;-61
2023/06/22 10:10:15;;;;;;;10.18;5.85;;;36.50;57.00;;;;;;5056064;28;20025;-61
2023/06/22 10:12:46;;;;;;;7.22;5.80;;;36.10;57.70;;;;;;5056294;28;20025;-61
2023/06/22 10:15:12;;;;;;;11.90;6.20;;;36.60;58.40;;;;;;5055774;28;20373;-61
2023/06/22 10:17:38;;;;;;;8.43;5.85;;;36.10;57.00;;;;;;5037974;28;20036;-61
2023/06/22 10:20:11;;;;;;;9.07;5.10;;;35.80;58.80;;;;;;5055771;28;20025;-61
2023/06/22 10:22:41;;;;;;;13.38;6.18;;;37.30;57.60;;;;;;5055903;28;20032;-61
2023/06/22 10:25:08;;;;;;;10.30;5.57;;;37.20;57.20;;;;;;5055818;28;20032;-61
2023/06/22 10:27:34;;;;;;;9.48;6.00;;;36.40;57.10;;;;;;5037837;28;20056;-61
2023/06/22 10:29:59;;;;;;;7.63;5.38;;;37.10;56.50;;;;;;5037900;28;20032;-61
2023/06/22 10:32:25;;;;;;;8.80;5.50;;;37.50;55.80;;;;;;5055642;28;20029;-61
2023/06/22 10:34:51;;;;;;;9.57;5.57;;;37.70;55.70;;;;;;5055850;28;20428;-61
2023/06/22 10:37:16;;;;;;;8.32;5.20;;;37.00;55.70;;;;;;5056329;28;20083;-61
2023/06/22 10:39:42;;;;;;;8.07;5.40;;;37.00;56.00;;;;;;5055511;28;20063;-61
2023/06/22 10:42:08;;;;;;;6.95;4.88;;;36.80;55.10;;;;;;5055523;28;20442;-61
2023/06/22 10:44:33;;;;;;;13.10;5.53;;;37.40;55.50;;;;;;5055148;28;20083;-61
2023/06/22 10:46:59;;;;;;;8.20;5.25;;;36.80;55.40;;;;;;5055115;28;20035;-61
2023/06/22 10:49:25;;;;;;;6.78;4.80;;;37.00;55.00;;;;;;5055032;28;20053;-61
2023/06/22 10:51:50;;;;;;;8.68;4.82;;;37.20;55.40;;;;;;5055055;28;20075;-61
2023/06/22 10:54:18;;;;;;;5.80;4.43;;;38.00;55.00;;;;;;5055213;28;20068;-62
2023/06/22 10:56:43;;;;;;;8.77;4.20;;;38.00;54.10;;;;;;5037963;28;20025;-61
2023/06/22 10:59:09;;;;;;;9.65;4.68;;;38.40;53.00;;;;;;5055423;28;20597;-61
2023/06/22 11:01:35;;;;;;;7.07;4.78;;;38.30;52.80;;;;;;5055158;28;20025;-61
2023/06/22 11:04:01;;;;;;;7.50;4.22;;;38.70;52.90;;;;;;5054697;28;20067;-61
2023/06/22 11:06:26;;;;;;;9.25;3.97;;;37.90;52.50;;;;;;5055077;28;20081;-61
2023/06/22 11:08:52;;;;;;;5.53;3.20;;;38.00;52.30;;;;;;5053823;28;20060;-61
2023/06/22 11:11:18;;;;;;;7.72;3.78;;;37.50;51.60;;;;;;5037372;28;20029;-61
2023/06/22 11:13:43;;;;;;;6.40;3.63;;;38.40;51.90;;;;;;5055300;28;20104;-61
2023/06/22 11:16:10;;;;;;;10.23;3.40;;;38.30;51.00;;;;;;5054637;28;20453;-61
2023/06/22 11:18:36;;;;;;;6.40;3.60;;;37.60;51.90;;;;;;5037184;28;20059;-61
2023/06/22 11:21:02;;;;;;;8.75;3.33;;;37.50;52.30;;;;;;5036865;28;20469;-61
2023/06/22 11:23:28;;;;;;;4.85;2.90;;;37.80;51.50;;;;;;5054985;28;20122;-61
2023/06/22 11:25:54;;;;;;;8.32;3.30;;;38.20;51.90;;;;;;5054627;28;20025;-61
2023/06/22 11:28:20;;;;;;;6.57;3.25;;;38.70;50.90;;;;;;5054232;28;20059;-61
2023/06/22 11:30:46;;;;;;;4.82;3.22;;;38.50;51.20;;;;;;5037073;28;20052;-61
2023/06/22 11:33:11;;;;;;;5.53;3.20;;;37.90;50.80;;;;;;5054403;28;20036;-61
2023/06/22 11:35:37;;;;;;;5.82;3.70;;;38.40;50.70;;;;;;5036625;28;20083;-61
2023/06/22 11:38:04;;;;;;;5.63;3.33;;;38.30;51.20;;;;;;5054437;28;20032;-61
2023/06/22 11:40:30;;;;;;;9.25;3.45;;;38.40;50.70;;;;;;5054164;28;20044;-61
2023/06/22 11:42:56;;;;;;;6.43;3.70;;;37.90;50.60;;;;;;5036172;28;20122;-61
2023/06/22 11:45:21;;;;;;;9.50;3.53;;;37.70;50.60;;;;;;5054311;28;20025;-61
2023/06/22 11:47:47;;;;;;;8.27;3.38;;;36.70;50.90;;;;;;5036303;28;20035;-61
2023/06/22 11:50:13;;;;;;;6.60;3.15;;;37.70;52.20;;;;;;5054564;28;20045;-61
2023/06/22 11:52:39;;;;;;;8.27;3.40;;;36.90;52.00;;;;;;5036198;28;20518;-61
2023/06/22 11:55:06;;;;;;;7.93;3.40;;;37.80;51.30;;;;;;5053960;28;20041;-61
2023/06/22 11:57:51;;;;;;;8.45;3.25;;;38.30;49.90;;;;;;5054400;28;20025;-61
2023/06/22 12:00:17;;;;;;;7.10;3.75;;;37.90;50.40;;;;;;5054344;28;20029;-62
2023/06/22 12:02:44;;;;;;;5.95;3.85;;;37.40;50.80;;;;;;5054092;28;20021;-61
2023/06/22 12:05:11;;;;;;;8.05;3.30;;;37.40;51.40;;;;;;5036154;28;20032;-61
2023/06/22 12:07:37;;;;;;;6.18;3.22;;;37.70;51.70;;;;;;5054190;28;20372;-61
2023/06/22 12:10:03;;;;;;;9.10;3.90;;;37.90;50.40;;;;;;5036093;28;20120;-61
2023/06/22 12:12:29;;;;;;;6.65;3.05;;;37.70;50.70;;;;;;5030402;28;20033;-63
2023/06/22 12:14:55;;;;;;;7.28;3.67;;;37.20;50.20;;;;;;5042627;28;20044;-61
2023/06/22 12:17:20;;;;;;;5.07;3.47;;;38.70;49.70;;;;;;5026924;28;20116;-63
2023/06/22 12:19:46;;;;;;;6.70;3.33;;;38.30;49.60;;;;;;5044495;28;20033;-62
2023/06/22 12:22:12;;;;;;;8.93;3.67;;;37.60;50.70;;;;;;5046800;28;20025;-61
2023/06/22 12:24:37;;;;;;;6.38;3.25;;;36.90;50.00;;;;;;5047785;28;20111;-61
2023/06/22 12:27:04;;;;;;;6.50;3.17;;;37.10;52.20;;;;;;5046064;28;20036;-63
2023/06/22 12:29:29;;;;;;;8.98;3.42;;;37.10;52.10;;;;;;5046170;28;20043;-62
2023/06/22 12:31:55;;;;;;;8.98;3.33;;;37.70;51.00;;;;;;5053025;28;20024;-61
2023/06/22 12:34:20;;;;;;;10.20;4.13;;;38.40;50.70;;;;;;5035826;28;20044;-61
2023/06/22 12:36:48;;;;;;;6.55;3.70;;;38.50;50.40;;;;;;5053527;28;20036;-61
2023/06/22 12:39:14;;;;;;;9.00;4.15;;;38.50;50.50;;;;;;5035887;28;20025;-61